sensor_id;sensor_type;location;lat;lon;timestamp;pressure;altitude;pressure_sealevel;temperature;humidity
46778;BME280;32536;47.128;8.746;2022-11-15T00:00:56;91485.34;;;10.24;51.64
46778;BME280;32536;47.128;8.746;2022-11-15T00:03:26;91475.00;;;10.27;50.90
46778;BME280;32536;47.128;8.746;2022-11-15T00:05:53;91478.44;;;10.27;50.58
46778;BME280;32536;47.128;8.746;2022-11-15T00:08:20;91487.25;;;10.24;50.82
46778;BME280;32536;47.128;8.746;2022-11-15T00:11:01;91476.28;;;10.18;51.03
46778;BME280;32536;47.128;8.746;2022-11-15T00:13:29;91471.38;;;10.13;50.59
46778;BME280;32536;47.128;8.746;2022-11-15T00:15:57;91470.25;;;10.10;51.11
46778;BME280;32536;47.128;8.746;2022-11-15T00:18:25;91474.53;;;10.04;50.83
46778;BME280;32536;47.128;8.746;2022-11-15T00:20:53;91468.13;;;9.98;51.27
46778;BME280;32536;47.128;8.746;2022-11-15T00:23:20;91467.44;;;9.94;51.58
46778;BME280;32536;47.128;8.746;2022-11-15T00:25:46;91468.19;;;9.94;51.73
46778;BME280;32536;47.128;8.746;2022-11-15T00:28:20;91465.41;;;10.02;51.50
46778;BME280;32536;47.128;8.746;2022-11-15T00:30:47;91460.78;;;10.06;51.18
46778;BME280;32536;47.128;8.746;2022-11-15T00:33:34;91460.38;;;10.07;51.30
46778;BME280;32536;47.128;8.746;2022-11-15T00:36:06;91464.66;;;10.01;51.01
46778;BME280;32536;47.128;8.746;2022-11-15T00:38:36;91463.25;;;9.93;51.09
46778;BME280;32536;47.128;8.746;2022-11-15T00:41:05;91467.59;;;9.83;51.45
46778;BME280;32536;47.128;8.746;2022-11-15T00:43:33;91461.63;;;9.72;51.57
46778;BME280;32536;47.128;8.746;2022-11-15T00:46:00;91462.13;;;9.63;52.05
46778;BME280;32536;47.128;8.746;2022-11-15T00:48:28;91457.16;;;9.61;52.11
46778;BME280;32536;47.128;8.746;2022-11-15T00:50:55;91452.88;;;9.68;52.04
46778;BME280;32536;47.128;8.746;2022-11-15T00:53:22;91456.97;;;9.76;51.98
46778;BME280;32536;47.128;8.746;2022-11-15T00:55:49;91449.59;;;9.84;51.70
46778;BME280;32536;47.128;8.746;2022-11-15T00:58:15;91452.59;;;9.89;51.75
46778;BME280;32536;47.128;8.746;2022-11-15T01:00:42;91449.91;;;9.89;51.62
46778;BME280;32536;47.128;8.746;2022-11-15T01:03:09;91444.97;;;9.88;51.28
46778;BME280;32536;47.128;8.746;2022-11-15T01:05:39;91440.78;;;9.87;51.38
46778;BME280;32536;47.128;8.746;2022-11-15T01:08:05;91441.53;;;9.87;51.64
46778;BME280;32536;47.128;8.746;2022-11-15T01:10:36;91447.66;;;9.88;51.27
46778;BME280;32536;47.128;8.746;2022-11-15T01:13:03;91441.09;;;9.92;51.20
46778;BME280;32536;47.128;8.746;2022-11-15T01:15:30;91442.59;;;9.93;51.20
46778;BME280;32536;47.128;8.746;2022-11-15T01:17:57;91441.09;;;9.92;51.63
46778;BME280;32536;47.128;8.746;2022-11-15T01:20:23;91441.84;;;9.93;51.48
46778;BME280;32536;47.128;8.746;2022-11-15T01:22:50;91443.34;;;9.94;51.44
46778;BME280;32536;47.128;8.746;2022-11-15T01:25:17;91445.25;;;9.93;51.17
46778;BME280;32536;47.128;8.746;2022-11-15T01:27:44;91439.91;;;9.93;51.12
46778;BME280;32536;47.128;8.746;2022-11-15T01:30:11;91432.69;;;9.90;51.17
46778;BME280;32536;47.128;8.746;2022-11-15T01:32:38;91424.72;;;9.87;51.49
46778;BME280;32536;47.128;8.746;2022-11-15T01:35:04;91421.31;;;9.86;51.44
46778;BME280;32536;47.128;8.746;2022-11-15T01:37:31;91417.91;;;9.82;51.50
46778;BME280;32536;47.128;8.746;2022-11-15T01:39:58;91428.59;;;9.82;51.63
46778;BME280;32536;47.128;8.746;2022-11-15T01:42:25;91420.94;;;9.84;51.62
46778;BME280;32536;47.128;8.746;2022-11-15T01:44:52;91415.59;;;9.84;51.50
46778;BME280;32536;47.128;8.746;2022-11-15T01:47:26;91414.50;;;9.82;51.45
46778;BME280;32536;47.128;8.746;2022-11-15T01:50:26;91410.75;;;9.75;52.79
46778;BME280;32536;47.128;8.746;2022-11-15T01:52:56;91409.25;;;9.74;50.97
46778;BME280;32536;47.128;8.746;2022-11-15T01:55:26;91410.44;;;9.70;51.31
46778;BME280;32536;47.128;8.746;2022-11-15T01:57:59;91408.97;;;9.65;51.64
46778;BME280;32536;47.128;8.746;2022-11-15T02:00:29;91403.28;;;9.63;51.71
46778;BME280;32536;47.128;8.746;2022-11-15T02:02:56;91396.81;;;9.60;51.73
46778;BME280;32536;47.128;8.746;2022-11-15T02:05:23;91390.66;;;9.64;51.95
46778;BME280;32536;47.128;8.746;2022-11-15T02:07:50;91390.66;;;9.64;51.90
46778;BME280;32536;47.128;8.746;2022-11-15T02:10:20;91388.69;;;9.68;52.30
46778;BME280;32536;47.128;8.746;2022-11-15T02:12:49;91390.16;;;9.72;51.67
46778;BME280;32536;47.128;8.746;2022-11-15T02:15:16;91379.00;;;9.77;52.00
46778;BME280;32536;47.128;8.746;2022-11-15T02:26:38;91379.66;;;9.85;51.74
46778;BME280;32536;47.128;8.746;2022-11-15T02:32:20;91361.84;;;9.75;52.01
46778;BME280;32536;47.128;8.746;2022-11-15T02:35:23;91362.28;;;9.70;52.08
46778;BME280;32536;47.128;8.746;2022-11-15T02:41:15;91356.78;;;9.81;51.37
46778;BME280;32536;47.128;8.746;2022-11-15T02:43:55;91358.25;;;9.85;50.98
46778;BME280;32536;47.128;8.746;2022-11-15T02:46:39;91354.41;;;9.86;50.89
46778;BME280;32536;47.128;8.746;2022-11-15T02:49:32;91351.78;;;9.83;51.13
46778;BME280;32536;47.128;8.746;2022-11-15T02:52:01;91357.59;;;9.77;51.22
46778;BME280;32536;47.128;8.746;2022-11-15T02:54:32;91354.63;;;9.72;51.73
46778;BME280;32536;47.128;8.746;2022-11-15T02:57:10;91352.34;;;9.70;51.76
46778;BME280;32536;47.128;8.746;2022-11-15T02:59:53;91354.97;;;9.74;51.44
46778;BME280;32536;47.128;8.746;2022-11-15T03:05:19;91345.72;;;9.78;51.07
46778;BME280;32536;47.128;8.746;2022-11-15T03:10:57;91344.56;;;9.80;50.95
46778;BME280;32536;47.128;8.746;2022-11-15T03:16:47;91343.81;;;9.79;51.26
46778;BME280;32536;47.128;8.746;2022-11-15T03:19:57;91336.38;;;9.67;51.48
46778;BME280;32536;47.128;8.746;2022-11-15T03:22:29;91333.41;;;9.61;51.59
46778;BME280;32536;47.128;8.746;2022-11-15T03:25:00;91337.97;;;9.60;51.68
46778;BME280;32536;47.128;8.746;2022-11-15T03:27:34;91329.91;;;9.64;51.81
46778;BME280;32536;47.128;8.746;2022-11-15T03:30:06;91324.97;;;9.63;51.50
46778;BME280;32536;47.128;8.746;2022-11-15T03:32:38;91322.34;;;9.59;51.25
46778;BME280;32536;47.128;8.746;2022-11-15T03:35:29;91318.97;;;9.55;51.84
46778;BME280;32536;47.128;8.746;2022-11-15T03:38:15;91326.28;;;9.51;51.68
46778;BME280;32536;47.128;8.746;2022-11-15T03:41:10;91326.31;;;9.47;52.03
46778;BME280;32536;47.128;8.746;2022-11-15T03:47:03;91306.16;;;9.42;51.97
46778;BME280;32536;47.128;8.746;2022-11-15T03:49:36;91310.75;;;9.42;52.05
46778;BME280;32536;47.128;8.746;2022-11-15T03:52:06;91308.44;;;9.44;51.03
46778;BME280;32536;47.128;8.746;2022-11-15T03:54:33;91297.03;;;9.40;51.49
46778;BME280;32536;47.128;8.746;2022-11-15T03:57:00;91304.28;;;9.39;51.53
46778;BME280;32536;47.128;8.746;2022-11-15T03:59:27;91303.09;;;9.44;51.75
46778;BME280;32536;47.128;8.746;2022-11-15T04:01:53;91307.28;;;9.45;51.55
46778;BME280;32536;47.128;8.746;2022-11-15T04:04:20;91306.16;;;9.42;51.43
46778;BME280;32536;47.128;8.746;2022-11-15T04:06:47;91308.91;;;9.39;51.54
46778;BME280;32536;47.128;8.746;2022-11-15T04:09:14;91311.22;;;9.37;51.85
46778;BME280;32536;47.128;8.746;2022-11-15T04:11:40;91308.91;;;9.39;51.35
46778;BME280;32536;47.128;8.746;2022-11-15T04:14:07;91302.78;;;9.38;51.33
46778;BME280;32536;47.128;8.746;2022-11-15T04:16:34;91302.88;;;9.31;51.67
46778;BME280;32536;47.128;8.746;2022-11-15T04:19:00;91293.06;;;9.24;51.68
46778;BME280;32536;47.128;8.746;2022-11-15T04:21:46;91291.13;;;9.25;51.92
46778;BME280;32536;47.128;8.746;2022-11-15T04:24:31;91292.53;;;9.33;51.96
46778;BME280;32536;47.128;8.746;2022-11-15T04:26:58;91300.88;;;9.39;51.72
46778;BME280;32536;47.128;8.746;2022-11-15T04:29:25;91294.69;;;9.42;51.24
46778;BME280;32536;47.128;8.746;2022-11-15T04:32:05;91305.84;;;9.37;51.70
46778;BME280;32536;47.128;8.746;2022-11-15T04:34:32;91298.69;;;9.30;51.70
46778;BME280;32536;47.128;8.746;2022-11-15T04:37:00;91294.47;;;9.33;51.48
46778;BME280;32536;47.128;8.746;2022-11-15T04:39:40;91292.53;;;9.33;51.28
46778;BME280;32536;47.128;8.746;2022-11-15T04:42:08;91296.41;;;9.28;51.74
46778;BME280;32536;47.128;8.746;2022-11-15T04:44:35;91292.59;;;9.29;51.62
46778;BME280;32536;47.128;8.746;2022-11-15T04:47:02;91285.00;;;9.28;51.49
46778;BME280;32536;47.128;8.746;2022-11-15T04:49:29;91284.56;;;9.29;51.35
46778;BME280;32536;47.128;8.746;2022-11-15T04:51:56;91289.81;;;9.37;51.29
46778;BME280;32536;47.128;8.746;2022-11-15T04:54:23;91285.16;;;9.41;51.18
46778;BME280;32536;47.128;8.746;2022-11-15T04:56:49;91281.81;;;9.37;51.03
46778;BME280;32536;47.128;8.746;2022-11-15T04:59:16;91279.63;;;9.28;51.50
46778;BME280;32536;47.128;8.746;2022-11-15T05:01:43;91276.28;;;9.20;51.67
46778;BME280;32536;47.128;8.746;2022-11-15T05:04:10;91274.41;;;9.21;51.53
46778;BME280;32536;47.128;8.746;2022-11-15T05:06:50;91269.06;;;9.21;51.34
46778;BME280;32536;47.128;8.746;2022-11-15T05:09:18;91267.44;;;9.27;51.29
46778;BME280;32536;47.128;8.746;2022-11-15T05:11:46;91267.38;;;9.31;51.25
46778;BME280;32536;47.128;8.746;2022-11-15T05:14:13;91263.59;;;9.28;51.22
46778;BME280;32536;47.128;8.746;2022-11-15T05:16:41;91264.06;;;9.23;51.04
46778;BME280;32536;47.128;8.746;2022-11-15T05:19:08;91258.41;;;9.17;51.62
46778;BME280;32536;47.128;8.746;2022-11-15T05:21:35;91258.09;;;9.11;51.71
46778;BME280;32536;47.128;8.746;2022-11-15T05:24:02;91257.03;;;9.05;51.80
46778;BME280;32536;47.128;8.746;2022-11-15T05:26:30;91258.66;;;8.99;51.94
46778;BME280;32536;47.128;8.746;2022-11-15T05:28:58;91252.56;;;8.99;51.81
46778;BME280;32536;47.128;8.746;2022-11-15T05:31:26;91254.41;;;9.02;51.65
46778;BME280;32536;47.128;8.746;2022-11-15T05:33:54;91251.28;;;9.07;51.53
46778;BME280;32536;47.128;8.746;2022-11-15T05:39:06;91251.91;;;9.18;51.49
46778;BME280;32536;47.128;8.746;2022-11-15T05:41:44;91244.59;;;9.22;51.43
46778;BME280;32536;47.128;8.746;2022-11-15T05:44:20;91240.28;;;9.28;51.02
46778;BME280;32536;47.128;8.746;2022-11-15T05:46:49;91235.00;;;9.25;50.80
46778;BME280;32536;47.128;8.746;2022-11-15T05:49:21;91226.75;;;9.16;51.06
46778;BME280;32536;47.128;8.746;2022-11-15T05:51:51;91224.53;;;9.10;51.42
46778;BME280;32536;47.128;8.746;2022-11-15T05:54:20;91224.94;;;9.09;51.49
46778;BME280;32536;47.128;8.746;2022-11-15T05:56:48;91229.88;;;9.10;51.55
46778;BME280;32536;47.128;8.746;2022-11-15T05:59:16;91230.59;;;9.15;51.34
46778;BME280;32536;47.128;8.746;2022-11-15T06:01:43;91233.91;;;9.22;51.16
46778;BME280;32536;47.128;8.746;2022-11-15T06:04:10;91233.09;;;9.25;51.25
46778;BME280;32536;47.128;8.746;2022-11-15T06:06:37;91235.06;;;9.21;51.28
46778;BME280;32536;47.128;8.746;2022-11-15T06:09:03;91221.78;;;9.14;51.41
46778;BME280;32536;47.128;8.746;2022-11-15T06:11:30;91229.91;;;9.07;51.49
46778;BME280;32536;47.128;8.746;2022-11-15T06:13:57;91233.78;;;9.06;51.71
46778;BME280;32536;47.128;8.746;2022-11-15T06:16:24;91228.00;;;9.07;51.84
46778;BME280;32536;47.128;8.746;2022-11-15T06:18:50;91223.81;;;9.06;51.61
46778;BME280;32536;47.128;8.746;2022-11-15T06:21:17;91232.63;;;9.03;51.80
46778;BME280;32536;47.128;8.746;2022-11-15T06:23:44;91228.91;;;8.97;51.91
46778;BME280;32536;47.128;8.746;2022-11-15T06:26:11;91242.31;;;8.93;51.96
46778;BME280;32536;47.128;8.746;2022-11-15T06:28:37;91241.53;;;8.96;52.07
46778;BME280;32536;47.128;8.746;2022-11-15T06:31:11;91237.69;;;8.97;52.18
46778;BME280;32536;47.128;8.746;2022-11-15T06:33:56;91236.88;;;9.01;51.94
46778;BME280;32536;47.128;8.746;2022-11-15T06:36:23;91229.53;;;9.08;51.80
46778;BME280;32536;47.128;8.746;2022-11-15T06:38:50;91227.97;;;9.11;51.44
46778;BME280;32536;47.128;8.746;2022-11-15T06:41:16;91230.59;;;9.15;51.75
46778;BME280;32536;47.128;8.746;2022-11-15T06:43:43;91226.34;;;9.17;51.38
46778;BME280;32536;47.128;8.746;2022-11-15T06:46:10;91224.81;;;9.16;51.28
46778;BME280;32536;47.128;8.746;2022-11-15T06:48:37;91230.22;;;9.12;51.07
46778;BME280;32536;47.128;8.746;2022-11-15T06:51:05;91227.19;;;9.10;51.44
46778;BME280;32536;47.128;8.746;2022-11-15T06:53:33;91226.03;;;9.11;51.77
46778;BME280;32536;47.128;8.746;2022-11-15T06:56:02;91233.31;;;9.11;51.53
46778;BME280;32536;47.128;8.746;2022-11-15T06:58:30;91231.00;;;9.13;51.63
46778;BME280;32536;47.128;8.746;2022-11-15T07:01:08;91232.53;;;9.10;51.61
46778;BME280;32536;47.128;8.746;2022-11-15T07:03:38;91240.97;;;9.09;51.61
46778;BME280;32536;47.128;8.746;2022-11-15T07:06:07;91236.03;;;9.07;51.87
46778;BME280;32536;47.128;8.746;2022-11-15T07:08:35;91234.88;;;9.08;51.67
46778;BME280;32536;47.128;8.746;2022-11-15T07:11:05;91229.47;;;9.12;51.77
46778;BME280;32536;47.128;8.746;2022-11-15T07:13:33;91230.59;;;9.15;51.49
46778;BME280;32536;47.128;8.746;2022-11-15T07:16:03;91231.38;;;9.11;51.62
46778;BME280;32536;47.128;8.746;2022-11-15T07:18:32;91240.56;;;9.10;51.36
46778;BME280;32536;47.128;8.746;2022-11-15T07:21:05;91231.09;;;9.06;51.06
46778;BME280;32536;47.128;8.746;2022-11-15T07:23:37;91231.84;;;9.06;51.04
46778;BME280;32536;47.128;8.746;2022-11-15T07:26:05;91220.00;;;9.07;50.82
46778;BME280;32536;47.128;8.746;2022-11-15T07:28:32;91219.19;;;9.10;50.54
46778;BME280;32536;47.128;8.746;2022-11-15T07:31:04;91215.75;;;9.10;51.06
46778;BME280;32536;47.128;8.746;2022-11-15T07:33:59;91214.72;;;9.04;51.13
46778;BME280;32536;47.128;8.746;2022-11-15T07:36:26;91229.91;;;9.07;51.13
46778;BME280;32536;47.128;8.746;2022-11-15T07:38:53;91221.50;;;9.08;51.22
46778;BME280;32536;47.128;8.746;2022-11-15T07:41:20;91221.78;;;9.14;51.19
46778;BME280;32536;47.128;8.746;2022-11-15T07:43:46;91212.16;;;9.20;51.13
46778;BME280;32536;47.128;8.746;2022-11-15T07:46:16;91211.00;;;9.21;51.25
46778;BME280;32536;47.128;8.746;2022-11-15T07:48:43;91209.09;;;9.22;51.34
46778;BME280;32536;47.128;8.746;2022-11-15T07:51:13;91202.19;;;9.24;51.31
46778;BME280;32536;47.128;8.746;2022-11-15T07:53:42;91205.53;;;9.28;51.64
46778;BME280;32536;47.128;8.746;2022-11-15T07:56:09;91213.09;;;9.34;51.12
46778;BME280;32536;47.128;8.746;2022-11-15T07:58:37;91218.75;;;9.39;51.26
46778;BME280;32536;47.128;8.746;2022-11-15T08:01:09;91216.75;;;9.43;51.03
46778;BME280;32536;47.128;8.746;2022-11-15T08:03:36;91210.19;;;9.48;51.16
46778;BME280;32536;47.128;8.746;2022-11-15T08:06:04;91213.22;;;9.50;51.22
46778;BME280;32536;47.128;8.746;2022-11-15T08:08:30;91208.97;;;9.53;51.41
46778;BME280;32536;47.128;8.746;2022-11-15T08:10:58;91209.75;;;9.53;51.61
46778;BME280;32536;47.128;8.746;2022-11-15T08:13:25;91209.34;;;9.55;51.80
46778;BME280;32536;47.128;8.746;2022-11-15T08:15:57;91211.94;;;9.58;51.51
46778;BME280;32536;47.128;8.746;2022-11-15T08:18:25;91211.41;;;9.67;51.60
46778;BME280;32536;47.128;8.746;2022-11-15T08:20:51;91199.16;;;9.70;51.75
46778;BME280;32536;47.128;8.746;2022-11-15T08:23:18;91200.66;;;9.71;52.01
46778;BME280;32536;47.128;8.746;2022-11-15T08:25:45;91206.31;;;9.76;51.81
46778;BME280;32536;47.128;8.746;2022-11-15T08:28:12;91196.97;;;9.85;51.62
46778;BME280;32536;47.128;8.746;2022-11-15T08:30:41;91196.50;;;9.90;51.34
46778;BME280;32536;47.128;8.746;2022-11-15T08:33:13;91192.56;;;9.94;51.73
46778;BME280;32536;47.128;8.746;2022-11-15T08:35:41;91198.56;;;10.02;51.18
46778;BME280;32536;47.128;8.746;2022-11-15T08:38:09;91196.16;;;10.08;51.59
46778;BME280;32536;47.128;8.746;2022-11-15T08:40:36;91188.06;;;10.12;51.46
46778;BME280;32536;47.128;8.746;2022-11-15T08:43:03;91187.19;;;10.18;51.48
46778;BME280;32536;47.128;8.746;2022-11-15T08:45:30;91195.47;;;10.24;51.81
46778;BME280;32536;47.128;8.746;2022-11-15T08:48:00;91196.91;;;10.29;51.29
46778;BME280;32536;47.128;8.746;2022-11-15T08:50:28;91196.41;;;10.34;51.55
46778;BME280;32536;47.128;8.746;2022-11-15T08:52:55;91182.25;;;10.37;51.07
46778;BME280;32536;47.128;8.746;2022-11-15T08:55:22;91178.34;;;10.41;51.33
46778;BME280;32536;47.128;8.746;2022-11-15T08:57:49;91185.13;;;10.46;50.86
46778;BME280;32536;47.128;8.746;2022-11-15T09:00:16;91191.91;;;10.51;51.23
46778;BME280;32536;47.128;8.746;2022-11-15T09:02:45;91191.44;;;10.56;51.49
46778;BME280;32536;47.128;8.746;2022-11-15T09:05:12;91195.19;;;10.59;50.94
46778;BME280;32536;47.128;8.746;2022-11-15T09:07:40;91197.03;;;10.62;51.52
46778;BME280;32536;47.128;8.746;2022-11-15T09:10:08;91193.53;;;10.65;51.45
46778;BME280;32536;47.128;8.746;2022-11-15T09:12:34;91199.91;;;10.71;51.28
46778;BME280;32536;47.128;8.746;2022-11-15T09:15:02;91193.31;;;10.76;51.21
46778;BME280;32536;47.128;8.746;2022-11-15T09:17:30;91197.44;;;10.80;51.66
46778;BME280;32536;47.128;8.746;2022-11-15T09:19:57;91196.16;;;10.85;51.48
46778;BME280;32536;47.128;8.746;2022-11-15T09:22:24;91191.50;;;10.89;51.74
46778;BME280;32536;47.128;8.746;2022-11-15T09:24:51;91199.84;;;10.91;51.75
46778;BME280;32536;47.128;8.746;2022-11-15T09:27:17;91202.88;;;10.93;51.50
46778;BME280;32536;47.128;8.746;2022-11-15T09:29:44;91198.97;;;10.98;51.72
46778;BME280;32536;47.128;8.746;2022-11-15T09:32:11;91204.66;;;11.00;51.70
46778;BME280;32536;47.128;8.746;2022-11-15T09:34:38;91197.28;;;11.04;51.51
46778;BME280;32536;47.128;8.746;2022-11-15T09:37:05;91194.53;;;11.08;51.33
46778;BME280;32536;47.128;8.746;2022-11-15T09:39:31;91191.34;;;11.13;51.18
46778;BME280;32536;47.128;8.746;2022-11-15T09:51:11;91196.63;;;11.33;51.61
46778;BME280;32536;47.128;8.746;2022-11-15T09:53:48;91188.75;;;11.42;52.03
46778;BME280;32536;47.128;8.746;2022-11-15T09:56:29;91187.75;;;11.52;51.84
46778;BME280;32536;47.128;8.746;2022-11-15T10:04:22;91177.91;;;11.62;51.82
46778;BME280;32536;47.128;8.746;2022-11-15T10:07:03;91178.16;;;11.68;51.58
46778;BME280;32536;47.128;8.746;2022-11-15T10:12:14;91185.09;;;11.82;51.20
46778;BME280;32536;47.128;8.746;2022-11-15T10:14:41;91175.00;;;11.86;51.73
46778;BME280;32536;47.128;8.746;2022-11-15T10:20:58;91169.72;;;11.99;51.36
46778;BME280;32536;47.128;8.746;2022-11-15T10:23:35;91161.50;;;12.06;51.25
46778;BME280;32536;47.128;8.746;2022-11-15T10:26:08;91156.78;;;12.10;51.17
46778;BME280;32536;47.128;8.746;2022-11-15T10:28:37;91156.56;;;12.17;51.52
46778;BME280;32536;47.128;8.746;2022-11-15T10:31:21;91149.94;;;12.22;51.22
46778;BME280;32536;47.128;8.746;2022-11-15T10:34:13;91140.50;;;12.30;50.90
46778;BME280;32536;47.128;8.746;2022-11-15T10:36:46;91142.22;;;12.37;50.97
46778;BME280;32536;47.128;8.746;2022-11-15T10:39:28;91136.66;;;12.44;51.37
46778;BME280;32536;47.128;8.746;2022-11-15T10:41:55;91137.63;;;12.51;51.54
46778;BME280;32536;47.128;8.746;2022-11-15T10:44:30;91140.53;;;12.56;51.44
46778;BME280;32536;47.128;8.746;2022-11-15T10:49:29;91141.06;;;12.64;51.16
46778;BME280;32536;47.128;8.746;2022-11-15T10:54:43;91144.19;;;12.62;51.46
46778;BME280;32536;47.128;8.746;2022-11-15T10:57:27;91133.66;;;12.68;50.93
46778;BME280;32536;47.128;8.746;2022-11-15T11:00:32;91134.63;;;12.74;50.80
46778;BME280;32536;47.128;8.746;2022-11-15T11:03:04;91138.81;;;12.75;51.18
46778;BME280;32536;47.128;8.746;2022-11-15T11:05:36;91134.09;;;12.79;51.45
46778;BME280;32536;47.128;8.746;2022-11-15T11:10:38;91133.34;;;12.92;50.89
46778;BME280;32536;47.128;8.746;2022-11-15T11:13:20;91131.63;;;12.98;50.51
46778;BME280;32536;47.128;8.746;2022-11-15T11:18:56;91133.09;;;13.12;50.37
46778;BME280;32536;47.128;8.746;2022-11-15T11:22:09;91131.81;;;13.17;50.45
46778;BME280;32536;47.128;8.746;2022-11-15T11:45:20;91095.00;;;13.39;49.92
46778;BME280;32536;47.128;8.746;2022-11-15T11:48:03;91097.25;;;13.41;49.70
46778;BME280;32536;47.128;8.746;2022-11-15T11:50:41;91097.13;;;13.44;50.64
46778;BME280;32536;47.128;8.746;2022-11-15T11:53:13;91109.84;;;13.44;50.29
46778;BME280;32536;47.128;8.746;2022-11-15T11:55:53;91097.34;;;13.37;50.32
46778;BME280;32536;47.128;8.746;2022-11-15T12:01:10;91093.38;;;13.29;50.75
46778;BME280;32536;47.128;8.746;2022-11-15T12:04:14;91080.25;;;13.18;50.92
46778;BME280;32536;47.128;8.746;2022-11-15T12:07:04;91077.38;;;13.12;50.86
46778;BME280;32536;47.128;8.746;2022-11-15T12:09:55;91081.69;;;13.10;50.85
46778;BME280;32536;47.128;8.746;2022-11-15T12:15:09;91081.97;;;13.25;51.17
46778;BME280;32536;47.128;8.746;2022-11-15T12:17:41;91077.88;;;13.33;50.96
46778;BME280;32536;47.128;8.746;2022-11-15T12:20:34;91074.97;;;13.40;50.70
46778;BME280;32536;47.128;8.746;2022-11-15T12:23:13;91078.91;;;13.49;50.52
46778;BME280;32536;47.128;8.746;2022-11-15T12:25:55;91067.91;;;13.56;50.90
46778;BME280;32536;47.128;8.746;2022-11-15T12:31:24;91051.72;;;13.69;50.94
46778;BME280;32536;47.128;8.746;2022-11-15T12:36:49;91041.66;;;13.82;50.71
46778;BME280;32536;47.128;8.746;2022-11-15T12:39:17;91041.53;;;13.86;50.99
46778;BME280;32536;47.128;8.746;2022-11-15T12:47:01;91021.09;;;13.98;50.62
46778;BME280;32536;47.128;8.746;2022-11-15T13:02:42;90999.84;;;14.00;49.00
46778;BME280;32536;47.128;8.746;2022-11-15T13:13:04;90991.66;;;14.03;50.04
46778;BME280;32536;47.128;8.746;2022-11-15T13:15:52;90983.63;;;14.13;49.39
46778;BME280;32536;47.128;8.746;2022-11-15T13:18:32;90982.91;;;14.21;49.58
46778;BME280;32536;47.128;8.746;2022-11-15T13:21:05;90977.25;;;14.29;49.69
46778;BME280;32536;47.128;8.746;2022-11-15T13:24:04;90965.88;;;14.34;49.70
46778;BME280;32536;47.128;8.746;2022-11-15T13:26:40;90958.56;;;14.34;49.42
46778;BME280;32536;47.128;8.746;2022-11-15T13:29:15;90958.69;;;14.31;48.66
46778;BME280;32536;47.128;8.746;2022-11-15T13:31:44;90949.72;;;14.34;49.33
46778;BME280;32536;47.128;8.746;2022-11-15T13:34:31;90948.22;;;14.33;48.94
46778;BME280;32536;47.128;8.746;2022-11-15T13:36:59;90941.31;;;14.32;49.76
46778;BME280;32536;47.128;8.746;2022-11-15T13:41:56;90926.78;;;14.29;49.96
46778;BME280;32536;47.128;8.746;2022-11-15T13:44:26;90925.59;;;14.30;49.79
46778;BME280;32536;47.128;8.746;2022-11-15T13:47:13;90924.28;;;14.35;49.51
46778;BME280;32536;47.128;8.746;2022-11-15T13:49:41;90923.09;;;14.36;50.07
46778;BME280;32536;47.128;8.746;2022-11-15T13:52:11;90919.34;;;14.33;49.84
46778;BME280;32536;47.128;8.746;2022-11-15T13:54:47;90912.13;;;14.30;49.67
46778;BME280;32536;47.128;8.746;2022-11-15T13:57:23;90914.97;;;14.27;48.94
46778;BME280;32536;47.128;8.746;2022-11-15T13:59:55;90908.84;;;14.26;49.67
46778;BME280;32536;47.128;8.746;2022-11-15T14:02:29;90899.56;;;14.27;49.84
46778;BME280;32536;47.128;8.746;2022-11-15T14:05:00;90899.84;;;14.29;50.22
46778;BME280;32536;47.128;8.746;2022-11-15T14:07:56;90894.31;;;14.33;49.58
46778;BME280;32536;47.128;8.746;2022-11-15T14:10:30;90889.56;;;14.37;49.38
46778;BME280;32536;47.128;8.746;2022-11-15T14:12:59;90884.31;;;14.43;50.00
46778;BME280;32536;47.128;8.746;2022-11-15T14:15:31;90887.78;;;14.43;50.04
46778;BME280;32536;47.128;8.746;2022-11-15T14:18:02;90885.38;;;14.45;50.09
46778;BME280;32536;47.128;8.746;2022-11-15T14:20:36;90883.75;;;14.48;50.02
46778;BME280;32536;47.128;8.746;2022-11-15T14:23:05;90880.44;;;14.53;50.18
46778;BME280;32536;47.128;8.746;2022-11-15T14:25:56;90877.16;;;14.58;49.80
46778;BME280;32536;47.128;8.746;2022-11-15T14:30:56;90881.22;;;14.63;49.96
46778;BME280;32536;47.128;8.746;2022-11-15T14:33:38;90877.47;;;14.60;50.09
46778;BME280;32536;47.128;8.746;2022-11-15T14:36:20;90864.88;;;14.57;50.05
46778;BME280;32536;47.128;8.746;2022-11-15T14:38:47;90855.28;;;14.56;50.22
46778;BME280;32536;47.128;8.746;2022-11-15T14:41:21;90860.25;;;14.57;50.42
46778;BME280;32536;47.128;8.746;2022-11-15T14:43:52;90861.56;;;14.62;50.31
46778;BME280;32536;47.128;8.746;2022-11-15T14:46:19;90861.31;;;14.69;49.92
46778;BME280;32536;47.128;8.746;2022-11-15T14:48:46;90852.78;;;14.71;50.03
46778;BME280;32536;47.128;8.746;2022-11-15T14:51:15;90855.50;;;14.71;50.22
46778;BME280;32536;47.128;8.746;2022-11-15T14:53:44;90852.34;;;14.72;50.12
46778;BME280;32536;47.128;8.746;2022-11-15T14:56:12;90852.78;;;14.71;50.42
46778;BME280;32536;47.128;8.746;2022-11-15T14:58:39;90845.91;;;14.70;50.19
46778;BME280;32536;47.128;8.746;2022-11-15T15:01:17;90846.78;;;14.67;50.05
46778;BME280;32536;47.128;8.746;2022-11-15T15:03:47;90837.50;;;14.68;50.31
46778;BME280;32536;47.128;8.746;2022-11-15T15:06:14;90826.00;;;14.67;50.52
46778;BME280;32536;47.128;8.746;2022-11-15T15:08:41;90829.88;;;14.66;50.64
46778;BME280;32536;47.128;8.746;2022-11-15T15:11:14;90833.16;;;14.61;49.76
46778;BME280;32536;47.128;8.746;2022-11-15T15:13:47;90827.75;;;14.61;50.21
46778;BME280;32536;47.128;8.746;2022-11-15T15:16:14;90830.44;;;14.61;50.16
46778;BME280;32536;47.128;8.746;2022-11-15T15:18:41;90825.34;;;14.63;50.41
46778;BME280;32536;47.128;8.746;2022-11-15T15:21:19;90817.25;;;14.63;49.87
46778;BME280;32536;47.128;8.746;2022-11-15T15:23:46;90818.75;;;14.64;50.25
46778;BME280;32536;47.128;8.746;2022-11-15T15:26:13;90806.81;;;14.65;50.18
46778;BME280;32536;47.128;8.746;2022-11-15T15:28:40;90803.50;;;14.70;49.94
46778;BME280;32536;47.128;8.746;2022-11-15T15:31:09;90806.97;;;14.71;49.78
46778;BME280;32536;47.128;8.746;2022-11-15T15:33:36;90800.34;;;14.72;49.76
46778;BME280;32536;47.128;8.746;2022-11-15T15:36:03;90802.00;;;14.69;49.79